Time;durP1;ratioP1;P1;durP2;ratioP2;P2;SDS_P1;SDS_P2;PMS_P1;PMS_P2;Temp;Humidity;BMP_temperature;BMP_pressure;BME280_temperature;BME280_humidity;BME280_pressure;Samples;Min_cycle;Max_cycle;Signal;HPM_P1;HPM_P2
2023/08/03 00:01:37;;;;;;;2.15;1.02;;;;;;;;;;5068604;28;20698;-53
2023/08/03 00:04:04;;;;;;;2.03;1.23;;;;;;;;;;5068815;28;20102;-54
2023/08/03 00:06:30;;;;;;;1.92;0.98;;;;;;;;;;5068242;28;20421;-53
2023/08/03 00:08:57;;;;;;;2.17;1.33;;;;;;;;;;5068376;28;20048;-54
2023/08/03 00:11:23;;;;;;;4.10;1.50;;;;;;;;;;5068715;28;20052;-55
2023/08/03 00:13:50;;;;;;;3.35;1.52;;;;;;;;;;5049986;28;20054;-54
2023/08/03 00:16:16;;;;;;;2.83;1.27;;;;;;;;;;5067992;28;20136;-53
2023/08/03 00:18:43;;;;;;;3.90;1.42;;;;;;;;;;5051031;28;20106;-54
2023/08/03 00:21:09;;;;;;;3.22;1.80;;;;;;;;;;5068668;28;20040;-54
2023/08/03 00:23:35;;;;;;;3.05;1.45;;;;;;;;;;5068557;28;20056;-53
2023/08/03 00:26:02;;;;;;;2.75;1.40;;;;;;;;;;5069331;28;20113;-55
2023/08/03 00:28:28;;;;;;;3.55;1.20;;;;;;;;;;5072966;28;20049;-54
2023/08/03 00:30:55;;;;;;;3.13;1.45;;;;;;;;;;5072937;28;20075;-54
2023/08/03 00:33:21;;;;;;;2.88;1.42;;;;;;;;;;5068683;28;20118;-54
2023/08/03 00:35:48;;;;;;;2.28;1.45;;;;;;;;;;5067966;28;20125;-55
2023/08/03 00:38:14;;;;;;;3.30;1.60;;;;;;;;;;5068402;28;20716;-54
2023/08/03 00:40:41;;;;;;;3.65;1.70;;;;;;;;;;5068248;28;20435;-54
2023/08/03 00:43:07;;;;;;;6.20;1.73;;;;;;;;;;5068254;28;20047;-54
2023/08/03 00:45:34;;;;;;;2.55;1.55;;;;;;;;;;5068023;28;20040;-54
2023/08/03 00:48:00;;;;;;;2.75;1.65;;;;;;;;;;5067529;28;20480;-54
2023/08/03 00:50:27;;;;;;;2.70;1.52;;;;;;;;;;5068409;28;20053;-55
2023/08/03 00:52:53;;;;;;;3.08;1.52;;;;;;;;;;5068217;28;20048;-55
2023/08/03 00:55:20;;;;;;;3.28;2.03;;;;;;;;;;5068015;28;20133;-55
2023/08/03 00:57:46;;;;;;;5.00;1.30;;;;;;;;;;5068428;28;20050;-54
2023/08/03 01:00:13;;;;;;;3.85;1.70;;;;;;;;;;5068574;28;20047;-55
2023/08/03 01:02:39;;;;;;;3.47;1.63;;;;;;;;;;5068049;28;20502;-55
2023/08/03 01:05:06;;;;;;;3.58;1.33;;;;;;;;;;5067981;28;20361;-55
2023/08/03 01:07:34;;;;;;;5.55;1.52;;;;;;;;;;5068233;28;20052;-54
2023/08/03 01:10:01;;;;;;;4.93;1.45;;;;;;;;;;5068488;28;20055;-54
2023/08/03 01:12:27;;;;;;;2.92;1.20;;;;;;;;;;5068268;28;20048;-54
2023/08/03 01:14:54;;;;;;;3.70;2.17;;;;;;;;;;5066876;28;20182;-54
2023/08/03 01:17:21;;;;;;;2.70;1.63;;;;;;;;;;5068457;28;20106;-54
2023/08/03 01:19:47;;;;;;;4.38;1.67;;;;;;;;;;5068276;28;20076;-54
2023/08/03 01:22:14;;;;;;;3.90;1.90;;;;;;;;;;5068314;28;20044;-54
2023/08/03 01:24:41;;;;;;;7.90;2.65;;;;;;;;;;5068362;28;20127;-54
2023/08/03 01:27:07;;;;;;;3.83;1.92;;;;;;;;;;5069210;28;20456;-54
2023/08/03 01:29:34;;;;;;;9.10;2.20;;;;;;;;;;5063616;28;20124;-54
2023/08/03 01:32:00;;;;;;;4.65;1.98;;;;;;;;;;5050169;28;20107;-54
2023/08/03 01:34:27;;;;;;;4.15;1.70;;;;;;;;;;5066908;28;20131;-54
2023/08/03 01:36:54;;;;;;;3.45;2.08;;;;;;;;;;5067165;28;20135;-54
2023/08/03 01:39:22;;;;;;;2.50;1.65;;;;;;;;;;5067979;28;20453;-54
2023/08/03 01:41:49;;;;;;;2.50;1.70;;;;;;;;;;5068592;28;20056;-54
2023/08/03 01:44:18;;;;;;;4.60;1.67;;;;;;;;;;5066817;28;20513;-54
2023/08/03 01:46:45;;;;;;;5.47;1.80;;;;;;;;;;5069521;28;20060;-54
2023/08/03 01:49:11;;;;;;;2.97;1.80;;;;;;;;;;5071927;28;20048;-54
2023/08/03 01:51:40;;;;;;;2.92;1.38;;;;;;;;;;5071599;28;20056;-54
2023/08/03 01:54:08;;;;;;;4.68;2.00;;;;;;;;;;5070518;28;20048;-54
2023/08/03 01:56:34;;;;;;;7.97;2.88;;;;;;;;;;5071436;28;20136;-53
2023/08/03 01:59:01;;;;;;;6.50;1.77;;;;;;;;;;5071153;28;20127;-53
2023/08/03 02:01:27;;;;;;;4.85;1.70;;;;;;;;;;5071257;28;20132;-53
2023/08/03 02:03:54;;;;;;;6.43;2.53;;;;;;;;;;5070546;28;20380;-53
2023/08/03 02:06:21;;;;;;;5.97;1.92;;;;;;;;;;5053810;28;20154;-54
2023/08/03 02:08:48;;;;;;;8.25;1.80;;;;;;;;;;5052426;28;20045;-54
2023/08/03 02:11:14;;;;;;;4.70;2.53;;;;;;;;;;5070358;28;20044;-54
2023/08/03 02:13:40;;;;;;;3.25;2.22;;;;;;;;;;5070927;28;20140;-54
2023/08/03 02:16:10;;;;;;;5.57;2.13;;;;;;;;;;5069302;28;20060;-54
2023/08/03 02:18:50;;;;;;;5.45;2.15;;;;;;;;;;5070177;28;20041;-54
2023/08/03 02:21:16;;;;;;;4.35;2.28;;;;;;;;;;5070628;28;20131;-54
2023/08/03 02:23:43;;;;;;;5.75;1.75;;;;;;;;;;5070518;28;20144;-54
2023/08/03 02:26:09;;;;;;;5.65;2.30;;;;;;;;;;5069847;28;20079;-54
2023/08/03 02:28:36;;;;;;;6.38;2.47;;;;;;;;;;5070876;28;20079;-54
2023/08/03 02:31:02;;;;;;;11.20;3.00;;;;;;;;;;5072033;28;20072;-54
2023/08/03 02:33:28;;;;;;;3.88;2.22;;;;;;;;;;5070727;28;20048;-54
2023/08/03 02:35:55;;;;;;;4.10;2.38;;;;;;;;;;5067509;28;20048;-54
2023/08/03 02:38:21;;;;;;;3.40;2.00;;;;;;;;;;5075219;28;20484;-54
2023/08/03 02:40:48;;;;;;;5.80;2.10;;;;;;;;;;5077242;28;20426;-54
2023/08/03 02:43:14;;;;;;;5.43;2.33;;;;;;;;;;5066488;28;20128;-55
2023/08/03 02:45:40;;;;;;;4.78;2.33;;;;;;;;;;5075614;28;20310;-55
2023/08/03 02:48:07;;;;;;;5.47;2.47;;;;;;;;;;5069083;28;20084;-55
2023/08/03 02:50:33;;;;;;;12.68;3.28;;;;;;;;;;5070223;28;20052;-54
2023/08/03 02:53:00;;;;;;;7.13;2.38;;;;;;;;;;5073731;28;20576;-54
2023/08/03 02:55:26;;;;;;;3.15;2.33;;;;;;;;;;5070118;28;20048;-55
2023/08/03 02:57:53;;;;;;;4.45;2.15;;;;;;;;;;5069818;28;20599;-55
2023/08/03 03:00:20;;;;;;;5.72;2.75;;;;;;;;;;5066004;28;20045;-55
2023/08/03 03:02:47;;;;;;;6.78;2.55;;;;;;;;;;5070703;28;20072;-55
2023/08/03 03:05:14;;;;;;;9.02;2.47;;;;;;;;;;5070765;28;20048;-55
2023/08/03 03:07:40;;;;;;;7.07;3.00;;;;;;;;;;5070787;28;20108;-55
2023/08/03 03:10:07;;;;;;;5.22;3.10;;;;;;;;;;5071628;28;20079;-55
2023/08/03 03:12:33;;;;;;;4.22;2.35;;;;;;;;;;5069487;28;20754;-55
2023/08/03 03:14:59;;;;;;;5.63;2.95;;;;;;;;;;5069289;28;20051;-55
2023/08/03 03:17:26;;;;;;;4.75;2.08;;;;;;;;;;5068082;28;20127;-55
2023/08/03 03:19:52;;;;;;;5.97;2.72;;;;;;;;;;5070156;28;20048;-55
2023/08/03 03:22:19;;;;;;;13.18;2.88;;;;;;;;;;5069476;28;20109;-55
2023/08/03 03:24:45;;;;;;;6.45;2.35;;;;;;;;;;5065632;28;20056;-55
2023/08/03 03:27:11;;;;;;;5.05;2.10;;;;;;;;;;5069570;28;20067;-55
2023/08/03 03:29:38;;;;;;;4.07;2.00;;;;;;;;;;5068304;28;20063;-55
2023/08/03 03:32:05;;;;;;;6.90;2.28;;;;;;;;;;5069511;28;20063;-55
2023/08/03 03:34:31;;;;;;;8.10;2.13;;;;;;;;;;5046001;28;20048;-55
2023/08/03 03:36:58;;;;;;;4.75;2.63;;;;;;;;;;5068246;28;20044;-54
2023/08/03 03:39:24;;;;;;;6.32;3.22;;;;;;;;;;5068949;28;20155;-55
2023/08/03 03:41:51;;;;;;;6.28;2.90;;;;;;;;;;5071116;28;20045;-55
2023/08/03 03:44:17;;;;;;;10.48;3.00;;;;;;;;;;5068997;28;20071;-55
2023/08/03 03:46:43;;;;;;;8.32;2.30;;;;;;;;;;5070221;28;20048;-55
2023/08/03 03:49:10;;;;;;;7.57;3.22;;;;;;;;;;5070048;28;20090;-54
2023/08/03 03:51:36;;;;;;;6.93;2.10;;;;;;;;;;5062312;28;20045;-54
2023/08/03 03:54:03;;;;;;;3.72;2.22;;;;;;;;;;5066665;28;20045;-54
2023/08/03 03:56:29;;;;;;;17.52;2.60;;;;;;;;;;5069155;28;20157;-54
2023/08/03 03:58:56;;;;;;;10.07;2.45;;;;;;;;;;5068333;28;20577;-54
2023/08/03 04:01:22;;;;;;;6.47;2.00;;;;;;;;;;5068420;28;20467;-54
2023/08/03 04:03:48;;;;;;;7.88;2.35;;;;;;;;;;5068794;28;20112;-55
2023/08/03 04:06:15;;;;;;;5.75;1.83;;;;;;;;;;5069137;28;20049;-55
2023/08/03 04:08:41;;;;;;;8.23;2.08;;;;;;;;;;5064936;28;20076;-55
2023/08/03 04:11:08;;;;;;;5.78;1.70;;;;;;;;;;5069440;28;20127;-54
2023/08/03 04:13:34;;;;;;;6.22;2.20;;;;;;;;;;5068774;28;20074;-54
2023/08/03 04:16:01;;;;;;;6.28;2.00;;;;;;;;;;5069137;28;20110;-54
2023/08/03 04:18:27;;;;;;;5.95;2.13;;;;;;;;;;5069082;28;20095;-54
2023/08/03 04:20:54;;;;;;;7.85;1.98;;;;;;;;;;5069498;28;20106;-54
2023/08/03 04:23:20;;;;;;;9.13;2.00;;;;;;;;;;5060401;28;20049;-54
2023/08/03 04:25:47;;;;;;;7.30;2.40;;;;;;;;;;5068796;28;20040;-54
2023/08/03 04:28:13;;;;;;;5.93;1.83;;;;;;;;;;5068801;28;20058;-54
2023/08/03 04:30:39;;;;;;;13.23;3.03;;;;;;;;;;5069373;28;20091;-54
2023/08/03 04:33:06;;;;;;;12.48;2.03;;;;;;;;;;5067909;28;20052;-54
2023/08/03 04:35:32;;;;;;;9.23;1.90;;;;;;;;;;5068898;28;20048;-54
2023/08/03 04:37:59;;;;;;;5.28;1.98;;;;;;;;;;5068322;28;20536;-54
2023/08/03 04:40:25;;;;;;;18.20;2.70;;;;;;;;;;5068835;28;20048;-54
2023/08/03 04:42:52;;;;;;;7.88;2.53;;;;;;;;;;5067996;28;20036;-54
2023/08/03 04:45:18;;;;;;;8.77;2.13;;;;;;;;;;5068426;28;20044;-54
2023/08/03 04:47:44;;;;;;;10.75;3.17;;;;;;;;;;5068503;28;20448;-54
2023/08/03 04:50:11;;;;;;;11.52;2.35;;;;;;;;;;5069444;28;20056;-55
2023/08/03 04:52:37;;;;;;;10.02;2.10;;;;;;;;;;5069224;28;20052;-54
2023/08/03 04:55:04;;;;;;;10.65;1.88;;;;;;;;;;5068122;28;20470;-54
2023/08/03 04:57:30;;;;;;;10.68;1.90;;;;;;;;;;5049940;28;20658;-54
2023/08/03 04:59:57;;;;;;;10.40;2.00;;;;;;;;;;5050925;28;20131;-54
2023/08/03 05:02:23;;;;;;;9.50;1.98;;;;;;;;;;5067841;28;20045;-54
2023/08/03 05:04:50;;;;;;;12.30;1.95;;;;;;;;;;5067569;28;20051;-54
2023/08/03 05:07:16;;;;;;;6.00;1.20;;;;;;;;;;5068041;28;20053;-54
2023/08/03 05:09:45;;;;;;;10.55;2.50;;;;;;;;;;5067485;28;20123;-54
2023/08/03 05:12:11;;;;;;;8.43;1.65;;;;;;;;;;5067833;28;20554;-54
2023/08/03 05:14:38;;;;;;;8.25;1.70;;;;;;;;;;5061966;28;20048;-54
2023/08/03 05:17:04;;;;;;;7.70;2.05;;;;;;;;;;5071939;28;20096;-54
2023/08/03 05:19:31;;;;;;;10.00;2.35;;;;;;;;;;5068464;28;20048;-54
2023/08/03 05:21:58;;;;;;;11.85;2.15;;;;;;;;;;5070650;28;20045;-54
2023/08/03 05:24:25;;;;;;;13.00;2.28;;;;;;;;;;5059108;28;20412;-54
2023/08/03 05:26:51;;;;;;;8.43;1.30;;;;;;;;;;5071512;28;20040;-54
2023/08/03 05:29:18;;;;;;;10.13;2.88;;;;;;;;;;5051668;28;20468;-54
2023/08/03 05:31:48;;;;;;;10.02;1.42;;;;;;;;;;5071225;28;20044;-54
2023/08/03 05:34:15;;;;;;;11.75;1.98;;;;;;;;;;5069648;28;20056;-55
2023/08/03 05:36:41;;;;;;;8.77;1.80;;;;;;;;;;5063102;28;20103;-54
2023/08/03 05:39:08;;;;;;;7.55;1.48;;;;;;;;;;5069874;28;20141;-55
2023/08/03 05:41:34;;;;;;;4.97;1.58;;;;;;;;;;5070679;28;20155;-54
2023/08/03 05:44:01;;;;;;;11.52;2.10;;;;;;;;;;5069924;28;20040;-54
2023/08/03 05:46:32;;;;;;;10.63;1.98;;;;;;;;;;5051597;28;20124;-54
2023/08/03 05:48:58;;;;;;;4.25;1.88;;;;;;;;;;5069586;28;20074;-55
2023/08/03 05:51:27;;;;;;;10.90;2.42;;;;;;;;;;5071060;28;20141;-54
2023/08/03 05:53:54;;;;;;;5.20;1.33;;;;;;;;;;5069128;28;20044;-54
2023/08/03 05:56:21;;;;;;;13.50;2.75;;;;;;;;;;5053208;28;20127;-54
2023/08/03 05:58:48;;;;;;;7.15;2.25;;;;;;;;;;5068658;28;20051;-54
2023/08/03 06:01:18;;;;;;;9.98;2.35;;;;;;;;;;5067064;28;20083;-54
2023/08/03 06:03:44;;;;;;;10.50;2.08;;;;;;;;;;5070380;28;20049;-53
2023/08/03 06:06:13;;;;;;;6.38;1.23;;;;;;;;;;5070368;28;20051;-54
2023/08/03 06:08:44;;;;;;;7.95;1.77;;;;;;;;;;5070170;28;20066;-54
2023/08/03 06:11:10;;;;;;;11.80;1.13;;;;;;;;;;5071166;28;20127;-54
2023/08/03 06:13:38;;;;;;;6.97;1.88;;;;;;;;;;5070771;28;20088;-54
2023/08/03 06:16:09;;;;;;;9.43;1.50;;;;;;;;;;5069893;28;20110;-53
2023/08/03 06:18:55;;;;;;;9.25;1.92;;;;;;;;;;5064507;28;20059;-54
2023/08/03 06:21:23;;;;;;;5.85;1.15;;;;;;;;;;5071563;28;20040;-54
2023/08/03 06:23:50;;;;;;;5.75;1.15;;;;;;;;;;5070523;28;20048;-54
2023/08/03 06:26:17;;;;;;;6.00;1.02;;;;;;;;;;5069575;28;20123;-54
2023/08/03 06:28:44;;;;;;;7.20;1.20;;;;;;;;;;5069372;28;20054;-53
2023/08/03 06:31:14;;;;;;;7.50;1.83;;;;;;;;;;5069776;28;20148;-54
2023/08/03 06:33:42;;;;;;;5.07;1.10;;;;;;;;;;5069073;28;20138;-54
2023/08/03 06:36:17;;;;;;;5.03;1.02;;;;;;;;;;5069101;28;20424;-54
2023/08/03 06:38:44;;;;;;;6.50;1.48;;;;;;;;;;5069242;28;20062;-54
2023/08/03 06:41:10;;;;;;;5.68;0.68;;;;;;;;;;5069107;28;20377;-54
2023/08/03 06:43:37;;;;;;;2.72;1.08;;;;;;;;;;5069118;28;20091;-54
2023/08/03 06:46:04;;;;;;;9.65;1.50;;;;;;;;;;5068786;28;20488;-54
2023/08/03 06:48:32;;;;;;;7.25;0.73;;;;;;;;;;5069204;28;20071;-54
2023/08/03 06:50:59;;;;;;;4.22;1.10;;;;;;;;;;5069572;28;20106;-54
2023/08/03 06:53:25;;;;;;;6.30;1.20;;;;;;;;;;5069273;28;20120;-55
2023/08/03 06:55:52;;;;;;;6.68;0.85;;;;;;;;;;5068618;28;20555;-55
2023/08/03 06:58:18;;;;;;;4.00;0.57;;;;;;;;;;5067536;28;20143;-54
2023/08/03 07:00:45;;;;;;;4.55;0.85;;;;;;;;;;5068898;28;20105;-53
2023/08/03 07:03:12;;;;;;;6.13;0.93;;;;;;;;;;5063893;28;20048;-54
2023/08/03 07:05:39;;;;;;;8.90;1.00;;;;;;;;;;5068714;28;20041;-56
2023/08/03 07:08:06;;;;;;;4.97;2.05;;;;;;;;;;5068511;28;20198;-58
2023/08/03 07:10:33;;;;;;;4.45;1.17;;;;;;;;;;5068953;28;20129;-55
2023/08/03 07:12:59;;;;;;;4.03;1.33;;;;;;;;;;5068556;28;20051;-54
2023/08/03 07:15:26;;;;;;;7.53;1.15;;;;;;;;;;5068465;28;20535;-55
2023/08/03 07:17:52;;;;;;;4.68;0.77;;;;;;;;;;5066022;28;20045;-54
2023/08/03 07:20:19;;;;;;;4.80;0.93;;;;;;;;;;5057909;28;20032;-55
2023/08/03 07:22:45;;;;;;;1.80;0.63;;;;;;;;;;5069287;28;20071;-55
2023/08/03 07:25:12;;;;;;;6.20;1.55;;;;;;;;;;5068314;28;20059;-56
2023/08/03 07:27:41;;;;;;;6.82;1.50;;;;;;;;;;5067354;28;20056;-53
2023/08/03 07:30:07;;;;;;;4.45;0.50;;;;;;;;;;5068663;28;20448;-54
2023/08/03 07:32:34;;;;;;;4.68;0.60;;;;;;;;;;5068392;28;20216;-54
2023/08/03 07:35:02;;;;;;;4.38;0.68;;;;;;;;;;5067957;28;20068;-53
2023/08/03 07:37:28;;;;;;;3.75;0.70;;;;;;;;;;5069226;28;20119;-54
2023/08/03 07:39:55;;;;;;;4.55;0.60;;;;;;;;;;5068065;28;20040;-54
2023/08/03 07:42:21;;;;;;;4.60;0.63;;;;;;;;;;5068265;28;20040;-55
2023/08/03 07:44:51;;;;;;;4.63;0.77;;;;;;;;;;5067461;28;20572;-54
2023/08/03 07:47:17;;;;;;;3.72;0.80;;;;;;;;;;5068539;28;20463;-54
2023/08/03 07:49:44;;;;;;;6.50;0.80;;;;;;;;;;5049951;28;20677;-54
2023/08/03 07:52:10;;;;;;;3.40;0.40;;;;;;;;;;5067789;28;20120;-54
2023/08/03 07:54:37;;;;;;;5.03;0.70;;;;;;;;;;5067857;28;20140;-54
2023/08/03 07:57:03;;;;;;;1.90;0.47;;;;;;;;;;5068167;28;20058;-55
2023/08/03 07:59:30;;;;;;;3.90;0.50;;;;;;;;;;5067907;28;20041;-54
2023/08/03 08:01:56;;;;;;;1.55;0.30;;;;;;;;;;5068111;28;20524;-54
2023/08/03 08:04:23;;;;;;;4.43;0.80;;;;;;;;;;5067074;28;20045;-54
2023/08/03 08:06:49;;;;;;;1.30;0.50;;;;;;;;;;5066928;28;20075;-55
2023/08/03 08:09:16;;;;;;;2.42;0.50;;;;;;;;;;5064343;28;20084;-54
2023/08/03 08:11:42;;;;;;;4.00;0.40;;;;;;;;;;5048115;28;20198;-55
2023/08/03 08:14:09;;;;;;;1.83;0.40;;;;;;;;;;5067743;28;20113;-55
2023/08/03 08:16:36;;;;;;;2.80;0.20;;;;;;;;;;5066318;28;20106;-55
2023/08/03 08:19:04;;;;;;;1.70;0.32;;;;;;;;;;5067036;28;20089;-54
2023/08/03 08:21:30;;;;;;;10.27;0.75;;;;;;;;;;5063456;28;20374;-55
2023/08/03 08:23:57;;;;;;;2.20;0.30;;;;;;;;;;5067162;28;20522;-55
2023/08/03 08:26:25;;;;;;;2.25;0.40;;;;;;;;;;5067044;28;20051;-54
2023/08/03 08:28:56;;;;;;;2.75;0.15;;;;;;;;;;5065951;28;20067;-55
2023/08/03 08:31:31;;;;;;;5.15;0.30;;;;;;;;;;5066888;28;20121;-54
2023/08/03 08:34:18;;;;;;;1.45;0.10;;;;;;;;;;5063815;28;20049;-55
2023/08/03 08:36:45;;;;;;;3.20;0.30;;;;;;;;;;5067109;28;20056;-55
2023/08/03 08:39:11;;;;;;;1.52;0.30;;;;;;;;;;5054188;28;20110;-55
2023/08/03 08:41:41;;;;;;;3.67;0.20;;;;;;;;;;5067753;28;20488;-55
2023/08/03 08:44:12;;;;;;;4.38;0.35;;;;;;;;;;5067216;28;20484;-55
2023/08/03 08:46:40;;;;;;;1.43;0.43;;;;;;;;;;5049500;28;20084;-55
2023/08/03 08:49:07;;;;;;;6.75;0.25;;;;;;;;;;5066253;28;20393;-55
2023/08/03 08:51:34;;;;;;;4.10;0.32;;;;;;;;;;5066514;28;20080;-55
2023/08/03 08:54:03;;;;;;;1.60;0.28;;;;;;;;;;5066412;28;20123;-54
2023/08/03 08:56:32;;;;;;;2.67;0.50;;;;;;;;;;5066261;28;20060;-54
2023/08/03 08:59:03;;;;;;;2.42;0.45;;;;;;;;;;5065986;28;20048;-54
2023/08/03 09:01:51;;;;;;;1.95;0.47;;;;;;;;;;5067253;28;20064;-54
2023/08/03 09:04:27;;;;;;;1.95;0.43;;;;;;;;;;5066283;28;20102;-54
2023/08/03 09:06:57;;;;;;;4.25;0.25;;;;;;;;;;5066064;28;20051;-54
2023/08/03 09:09:28;;;;;;;6.85;0.40;;;;;;;;;;5066839;28;20102;-54
2023/08/03 09:11:57;;;;;;;0.77;0.25;;;;;;;;;;5066904;28;20052;-54
2023/08/03 09:14:24;;;;;;;1.70;0.30;;;;;;;;;;5060761;28;20068;-54
2023/08/03 09:16:50;;;;;;;1.10;0.20;;;;;;;;;;5067066;28;20053;-54
2023/08/03 09:19:36;;;;;;;1.67;0.13;;;;;;;;;;5066391;28;20044;-54
2023/08/03 09:22:03;;;;;;;3.35;0.20;;;;;;;;;;5067322;28;20489;-55
2023/08/03 09:24:30;;;;;;;3.03;0.10;;;;;;;;;;5066526;28;20603;-55
2023/08/03 09:26:59;;;;;;;3.72;0.30;;;;;;;;;;5066277;28;20552;-54
2023/08/03 09:29:32;;;;;;;1.42;0.30;;;;;;;;;;5066216;28;20404;-54
2023/08/03 09:31:59;;;;;;;2.25;0.10;;;;;;;;;;5067499;28;20098;-56
2023/08/03 09:34:39;;;;;;;1.45;0.65;;;;;;;;;;5065831;28;20048;-54
2023/08/03 09:37:09;;;;;;;3.40;0.20;;;;;;;;;;5067583;28;20127;-55
2023/08/03 09:39:38;;;;;;;4.38;0.30;;;;;;;;;;5066644;28;20064;-55
2023/08/03 09:42:05;;;;;;;9.65;0.30;;;;;;;;;;5067401;28;20045;-54
2023/08/03 09:44:36;;;;;;;1.48;0.30;;;;;;;;;;5065228;28;20187;-55
2023/08/03 09:47:03;;;;;;;0.50;0.30;;;;;;;;;;5066534;28;20079;-55
2023/08/03 09:49:30;;;;;;;0.82;0.43;;;;;;;;;;5062535;28;20056;-55
2023/08/03 09:51:59;;;;;;;1.75;0.10;;;;;;;;;;5067313;28;20223;-54
2023/08/03 09:54:38;;;;;;;3.15;0.50;;;;;;;;;;5066111;28;20087;-54
2023/08/03 09:57:08;;;;;;;3.25;0.47;;;;;;;;;;5068776;28;20084;-54
2023/08/03 09:59:40;;;;;;;3.50;0.80;;;;;;;;;;5066224;28;20438;-55
2023/08/03 10:02:07;;;;;;;1.05;0.10;;;;;;;;;;5068154;28;20049;-55
2023/08/03 10:04:38;;;;;;;0.10;0.00;;;;;;;;;;5065679;28;20676;-55
2023/08/03 10:07:05;;;;;;;1.23;0.20;;;;;;;;;;5067955;28;20054;-54
2023/08/03 10:09:37;;;;;;;0.65;0.10;;;;;;;;;;5069588;28;20147;-54
2023/08/03 10:12:04;;;;;;;0.82;0.20;;;;;;;;;;5071265;28;20477;-56
2023/08/03 10:14:32;;;;;;;1.98;0.10;;;;;;;;;;5069557;28;20086;-55
2023/08/03 10:17:00;;;;;;;2.78;0.20;;;;;;;;;;5071044;28;20049;-54
2023/08/03 10:19:28;;;;;;;1.48;0.20;;;;;;;;;;5068172;28;20044;-55
2023/08/03 10:21:54;;;;;;;1.15;0.30;;;;;;;;;;5070993;28;20044;-56
2023/08/03 10:24:21;;;;;;;0.52;0.10;;;;;;;;;;5067787;28;20079;-54
2023/08/03 10:26:52;;;;;;;0.68;0.10;;;;;;;;;;5067986;28;20048;-54
2023/08/03 10:29:18;;;;;;;;;;;;;;;;;;5069546;28;20080;-54
2023/08/03 10:31:54;;;;;;;1.67;0.22;;;;;;;;;;5068547;28;19927;-55
2023/08/03 10:34:25;;;;;;;3.72;0.20;;;;;;;;;;5068501;28;20053;-55
2023/08/03 10:36:53;;;;;;;2.45;0.10;;;;;;;;;;5062461;28;20123;-54
2023/08/03 10:39:38;;;;;;;1.50;0.30;;;;;;;;;;5069409;28;20048;-55
2023/08/03 10:42:22;;;;;;;1.27;0.20;;;;;;;;;;5068481;28;20048;-53
2023/08/03 10:44:49;;;;;;;1.73;0.20;;;;;;;;;;5067662;28;20040;-54
2023/08/03 10:47:29;;;;;;;1.52;0.68;;;;;;;;;;5069774;28;20475;-56
2023/08/03 10:49:57;;;;;;;2.92;0.20;;;;;;;;;;5064466;28;20061;-55
2023/08/03 10:52:26;;;;;;;2.75;0.20;;;;;;;;;;5048833;28;20048;-54
2023/08/03 10:54:53;;;;;;;1.63;0.60;;;;;;;;;;5068760;28;20052;-54
2023/08/03 10:57:24;;;;;;;1.15;0.20;;;;;;;;;;5069069;28;20215;-54
2023/08/03 10:59:52;;;;;;;1.65;0.15;;;;;;;;;;5068882;28;20048;-55
2023/08/03 11:02:21;;;;;;;7.25;0.82;;;;;;;;;;5050034;28;20052;-53
2023/08/03 11:04:52;;;;;;;2.85;0.47;;;;;;;;;;5065710;28;20091;-53
2023/08/03 11:07:30;;;;;;;1.98;0.75;;;;;;;;;;5061710;28;20049;-56
2023/08/03 11:09:57;;;;;;;3.83;0.55;;;;;;;;;;5069960;28;20052;-54
2023/08/03 11:12:25;;;;;;;2.50;0.38;;;;;;;;;;5067516;28;20052;-53
2023/08/03 11:14:53;;;;;;;4.95;0.43;;;;;;;;;;5068834;28;20132;-54
2023/08/03 11:17:24;;;;;;;2.50;0.40;;;;;;;;;;5069395;28;20044;-54
2023/08/03 11:19:51;;;;;;;1.20;0.30;;;;;;;;;;5069240;28;20052;-55
2023/08/03 11:22:21;;;;;;;5.22;0.50;;;;;;;;;;5069433;28;20041;-55
2023/08/03 11:24:50;;;;;;;1.38;0.13;;;;;;;;;;5068430;28;20147;-55
2023/08/03 11:27:17;;;;;;;4.63;0.52;;;;;;;;;;5069934;28;20112;-55
2023/08/03 11:29:44;;;;;;;4.20;0.30;;;;;;;;;;5067136;28;20132;-55
2023/08/03 11:32:11;;;;;;;1.38;0.38;;;;;;;;;;5069621;28;20080;-56
2023/08/03 11:34:39;;;;;;;0.88;0.20;;;;;;;;;;5067947;28;20048;-54
2023/08/03 11:37:06;;;;;;;4.38;0.47;;;;;;;;;;5049453;28;20645;-54
2023/08/03 11:39:33;;;;;;;3.22;0.55;;;;;;;;;;5063164;28;20459;-55
2023/08/03 11:42:00;;;;;;;1.45;0.30;;;;;;;;;;5069052;28;20072;-55
2023/08/03 11:44:26;;;;;;;1.02;0.35;;;;;;;;;;5067476;28;20045;-56
2023/08/03 11:47:07;;;;;;;0.85;0.22;;;;;;;;;;5068854;28;20485;-55
2023/08/03 11:49:34;;;;;;;4.10;0.22;;;;;;;;;;5065697;28;20059;-55
2023/08/03 11:52:00;;;;;;;2.13;0.28;;;;;;;;;;5068441;28;20142;-54
2023/08/03 11:54:29;;;;;;;3.20;0.40;;;;;;;;;;5067802;28;20136;-54
2023/08/03 11:58:07;;;;;;;0.80;0.28;;;;;;;;;;5067334;28;20056;-54
2023/08/03 11:59:46;;;;;;;0.47;0.10;;;;;;;;;;5067764;28;20094;-55
2023/08/03 12:02:13;;;;;;;9.75;0.43;;;;;;;;;;5068346;28;20056;-54
2023/08/03 12:04:39;;;;;;;2.85;0.25;;;;;;;;;;5067564;28;20068;-54
2023/08/03 12:07:16;;;;;;;0.82;0.20;;;;;;;;;;5066534;28;20052;-54
2023/08/03 12:09:50;;;;;;;1.75;0.30;;;;;;;;;;5068340;28;20044;-54
2023/08/03 12:12:16;;;;;;;4.00;0.75;;;;;;;;;;5068273;28;20048;-55
2023/08/03 12:14:43;;;;;;;1.20;0.45;;;;;;;;;;5065326;28;20056;-54
2023/08/03 12:17:11;;;;;;;5.63;0.40;;;;;;;;;;5067076;28;20052;-55
2023/08/03 12:19:38;;;;;;;1.42;0.40;;;;;;;;;;5060705;28;20048;-54
2023/08/03 12:22:05;;;;;;;2.03;0.30;;;;;;;;;;5068476;28;20051;-54
2023/08/03 12:24:37;;;;;;;1.00;0.30;;;;;;;;;;5066222;28;20590;-53
2023/08/03 12:28:40;;;;;;;4.05;0.52;;;;;;;;;;5107715;27;20661;-53
2023/08/03 12:31:07;;;;;;;3.10;0.30;;;;;;;;;;5086135;28;20068;-54
2023/08/03 12:33:33;;;;;;;4.72;0.85;;;;;;;;;;5091357;28;20051;-55
2023/08/03 12:36:00;;;;;;;1.67;0.30;;;;;;;;;;5094873;28;20131;-54
2023/08/03 12:38:26;;;;;;;1.33;0.30;;;;;;;;;;5096085;28;20075;-54
2023/08/03 12:40:53;;;;;;;0.60;0.22;;;;;;;;;;5086375;28;20153;-54
2023/08/03 12:43:20;;;;;;;1.70;0.30;;;;;;;;;;5086000;28;20071;-56
2023/08/03 12:45:46;;;;;;;1.75;0.38;;;;;;;;;;5085517;28;20094;-54
2023/08/03 12:48:13;;;;;;;0.65;0.40;;;;;;;;;;5086652;28;20067;-54
2023/08/03 12:50:44;;;;;;;1.43;0.60;;;;;;;;;;5084276;28;20057;-54
2023/08/03 12:53:12;;;;;;;6.72;0.50;;;;;;;;;;5082917;28;20048;-55
2023/08/03 12:55:39;;;;;;;7.32;0.55;;;;;;;;;;5082258;28;20036;-55
2023/08/03 12:58:08;;;;;;;4.28;0.50;;;;;;;;;;5087332;28;20048;-54
2023/08/03 13:00:34;;;;;;;1.20;0.20;;;;;;;;;;5078501;28;20084;-54
2023/08/03 13:03:01;;;;;;;6.35;0.63;;;;;;;;;;5087015;28;20582;-54
2023/08/03 13:05:27;;;;;;;2.67;0.40;;;;;;;;;;5087075;28;20078;-54
2023/08/03 13:07:54;;;;;;;1.90;0.38;;;;;;;;;;5083733;28;20610;-54
2023/08/03 13:10:21;;;;;;;1.15;0.20;;;;;;;;;;5084354;28;20041;-54
2023/08/03 13:12:47;;;;;;;3.38;0.35;;;;;;;;;;5085316;28;20040;-55
2023/08/03 13:15:25;;;;;;;0.30;0.10;;;;;;;;;;5084224;28;20044;-54
2023/08/03 13:17:52;;;;;;;1.55;0.68;;;;;;;;;;5084120;28;20055;-53
2023/08/03 13:20:21;;;;;;;4.00;0.45;;;;;;;;;;5083605;28;20104;-54
2023/08/03 13:22:47;;;;;;;1.35;0.20;;;;;;;;;;5079304;28;20052;-55
2023/08/03 13:25:14;;;;;;;1.67;0.30;;;;;;;;;;5084117;28;20075;-55
2023/08/03 13:27:41;;;;;;;0.50;0.10;;;;;;;;;;5081679;28;20056;-53
2023/08/03 13:30:08;;;;;;;0.95;0.40;;;;;;;;;;5086358;28;20040;-51
2023/08/03 13:32:36;;;;;;;1.48;0.20;;;;;;;;;;5081498;28;20040;-59
2023/08/03 13:35:03;;;;;;;3.78;0.35;;;;;;;;;;5084610;28;20523;-53
2023/08/03 13:37:29;;;;;;;2.22;0.40;;;;;;;;;;5084162;28;20048;-53
2023/08/03 13:39:56;;;;;;;1.50;0.40;;;;;;;;;;5071522;28;20480;-52
2023/08/03 13:42:22;;;;;;;1.80;0.40;;;;;;;;;;5068660;28;20121;-54
2023/08/03 13:44:49;;;;;;;0.60;0.20;;;;;;;;;;5070875;28;20518;-56
2023/08/03 13:47:15;;;;;;;1.58;0.30;;;;;;;;;;5069543;28;20047;-57
2023/08/03 13:49:42;;;;;;;2.28;0.30;;;;;;;;;;5068970;28;20055;-57
2023/08/03 13:52:09;;;;;;;0.95;0.20;;;;;;;;;;5068591;28;20197;-57
2023/08/03 13:54:35;;;;;;;2.38;0.30;;;;;;;;;;5071668;28;20495;-57
2023/08/03 13:57:02;;;;;;;3.75;0.40;;;;;;;;;;5067728;28;20175;-57
2023/08/03 13:59:33;;;;;;;1.95;0.32;;;;;;;;;;5070692;28;20118;-57
2023/08/03 14:02:00;;;;;;;1.90;0.30;;;;;;;;;;5068334;28;20124;-58
2023/08/03 14:04:31;;;;;;;2.38;0.52;;;;;;;;;;5069912;28;20087;-57
2023/08/03 14:06:58;;;;;;;0.38;0.17;;;;;;;;;;5071312;28;20123;-57
2023/08/03 14:09:28;;;;;;;0.88;0.17;;;;;;;;;;5073742;28;20120;-57
2023/08/03 14:11:54;;;;;;;2.90;0.73;;;;;;;;;;5065747;28;20048;-57
2023/08/03 14:14:24;;;;;;;1.73;0.37;;;;;;;;;;5066666;28;20036;-59
2023/08/03 14:16:54;;;;;;;5.28;1.05;;;;;;;;;;5068665;28;20381;-58
2023/08/03 14:19:24;;;;;;;1.75;0.50;;;;;;;;;;5069576;28;20120;-57
2023/08/03 14:21:51;;;;;;;4.20;1.23;;;;;;;;;;5071474;28;20460;-57
2023/08/03 14:24:21;;;;;;;2.13;0.50;;;;;;;;;;5066082;28;20128;-58
2023/08/03 14:26:50;;;;;;;2.30;0.50;;;;;;;;;;5068369;28;20076;-56
2023/08/03 14:29:17;;;;;;;2.13;0.50;;;;;;;;;;5069963;28;20144;-56
2023/08/03 14:31:44;;;;;;;4.75;1.20;;;;;;;;;;5067629;28;20067;-56
2023/08/03 14:34:12;;;;;;;3.25;0.60;;;;;;;;;;5062132;28;20204;-55
2023/08/03 14:36:38;;;;;;;5.28;0.60;;;;;;;;;;5067261;28;20045;-56
2023/08/03 14:39:05;;;;;;;1.63;1.35;;;;;;;;;;5065535;28;20098;-56
2023/08/03 14:41:32;;;;;;;1.83;1.05;;;;;;;;;;5063109;28;20066;-56
2023/08/03 14:44:01;;;;;;;3.95;0.60;;;;;;;;;;5064707;28;20111;-57
2023/08/03 14:46:31;;;;;;;1.13;0.82;;;;;;;;;;5067150;28;20052;-55
2023/08/03 14:48:58;;;;;;;2.00;0.35;;;;;;;;;;5068574;28;20567;-55